Time;durP1;ratioP1;P1;durP2;ratioP2;P2;SDS_P1;SDS_P2;PMS_P1;PMS_P2;Temp;Humidity;BMP_temperature;BMP_pressure;BME280_temperature;BME280_humidity;BME280_pressure;Samples;Min_cycle;Max_cycle;Signal;HPM_P1;HPM_P2
2021/10/26 00:00:08;;;;;;;40.13;25.17;;;12.10;99.90;;;;;;5028297;28;20051;-54
2021/10/26 00:02:34;;;;;;;40.58;25.98;;;12.10;99.90;;;;;;5046177;28;20037;-50
2021/10/26 00:05:00;;;;;;;38.30;24.67;;;12.10;99.90;;;;;;5054106;28;20452;-50
2021/10/26 00:07:26;;;;;;;39.13;26.42;;;12.10;99.90;;;;;;5036167;28;20033;-50
2021/10/26 00:09:51;;;;;;;43.35;26.63;;;12.10;99.90;;;;;;5054353;28;20071;-49
2021/10/26 00:12:17;;;;;;;42.80;27.25;;;12.10;99.90;;;;;;5043615;28;20049;-50
2021/10/26 00:14:43;;;;;;;39.67;26.80;;;12.10;99.90;;;;;;5053220;28;20033;-50
2021/10/26 00:17:08;;;;;;;39.17;26.67;;;12.10;99.90;;;;;;5053810;28;20233;-49
2021/10/26 00:19:34;;;;;;;43.58;27.17;;;12.10;99.90;;;;;;5053359;28;20037;-51
2021/10/26 00:22:00;;;;;;;44.08;27.45;;;12.10;99.90;;;;;;5053821;28;20041;-51
2021/10/26 00:24:26;;;;;;;44.92;28.10;;;12.10;99.90;;;;;;5053541;28;20045;-50
2021/10/26 00:26:51;;;;;;;45.15;27.73;;;12.10;99.90;;;;;;5053463;28;20120;-50
2021/10/26 00:29:17;;;;;;;44.63;27.45;;;12.10;99.90;;;;;;5053719;28;20068;-54
2021/10/26 00:31:43;;;;;;;42.35;29.25;;;12.10;99.90;;;;;;5052909;28;20051;-50
2021/10/26 00:34:08;;;;;;;40.97;27.83;;;12.10;99.90;;;;;;5053466;28;20040;-50
2021/10/26 00:36:34;;;;;;;43.97;27.73;;;12.10;99.90;;;;;;5053547;28;20090;-54
2021/10/26 00:39:00;;;;;;;43.08;27.42;;;12.10;99.90;;;;;;5054025;28;20082;-53
2021/10/26 00:41:26;;;;;;;44.40;27.77;;;12.10;99.90;;;;;;5040339;28;20115;-52
2021/10/26 00:43:52;;;;;;;45.40;27.23;;;12.10;99.90;;;;;;5053652;28;20037;-50
2021/10/26 00:46:29;;;;;;;42.55;28.48;;;12.10;99.90;;;;;;5053050;28;20381;-54
2021/10/26 00:48:56;;;;;;;41.67;27.70;;;12.10;99.90;;;;;;5052287;28;20504;-51
2021/10/26 00:51:22;;;;;;;43.95;28.83;;;12.00;99.90;;;;;;5053043;28;20124;-52
2021/10/26 00:53:47;;;;;;;44.33;28.27;;;12.00;99.90;;;;;;5053382;28;20079;-50
2021/10/26 00:56:14;;;;;;;48.45;28.25;;;12.10;99.90;;;;;;5052827;28;20480;-50
2021/10/26 00:58:40;;;;;;;46.20;29.02;;;12.00;99.90;;;;;;5053474;28;20094;-49
2021/10/26 01:01:05;;;;;;;47.15;28.85;;;12.00;99.90;;;;;;5037282;28;20041;-49
2021/10/26 01:03:31;;;;;;;46.88;27.73;;;12.00;99.90;;;;;;5053292;28;20041;-50
2021/10/26 01:05:57;;;;;;;42.85;27.13;;;12.00;99.90;;;;;;5052190;28;20386;-53
2021/10/26 01:08:23;;;;;;;48.85;27.40;;;12.00;99.90;;;;;;5047759;28;20051;-52
2021/10/26 01:10:51;;;;;;;48.30;28.35;;;12.00;99.90;;;;;;5052318;28;20112;-51
2021/10/26 01:13:19;;;;;;;48.65;27.08;;;11.90;99.90;;;;;;5053001;28;20067;-51
2021/10/26 01:15:45;;;;;;;43.15;26.10;;;11.90;99.90;;;;;;5044193;28;20463;-54
2021/10/26 01:18:12;;;;;;;48.28;26.00;;;11.90;99.90;;;;;;5043756;28;20037;-50
2021/10/26 01:20:38;;;;;;;47.13;27.63;;;11.90;99.90;;;;;;5052662;28;20036;-49
2021/10/26 01:23:03;;;;;;;47.08;27.15;;;11.90;99.90;;;;;;5052024;28;20033;-53
2021/10/26 01:25:29;;;;;;;45.15;27.38;;;11.90;99.90;;;;;;5052355;28;20120;-53
2021/10/26 01:27:54;;;;;;;44.08;26.05;;;11.80;99.90;;;;;;5041868;28;20056;-52
2021/10/26 01:30:26;;;;;;;46.33;27.15;;;11.80;99.90;;;;;;5050044;28;20048;-51
2021/10/26 01:32:53;;;;;;;46.85;27.85;;;11.80;99.90;;;;;;5051403;28;20025;-49
2021/10/26 01:35:18;;;;;;;46.53;27.05;;;11.80;99.90;;;;;;5052077;28;20489;-49
2021/10/26 01:37:44;;;;;;;43.47;25.95;;;11.80;99.90;;;;;;5052428;28;20090;-49
2021/10/26 01:40:10;;;;;;;44.88;25.80;;;11.80;99.90;;;;;;5051860;28;20056;-50
2021/10/26 01:42:37;;;;;;;46.97;27.50;;;11.80;99.90;;;;;;5052081;28;20116;-50
2021/10/26 01:45:03;;;;;;;41.90;26.65;;;11.80;99.90;;;;;;5052253;28;20053;-49
2021/10/26 01:47:29;;;;;;;44.65;25.70;;;11.80;99.90;;;;;;5052293;28;20052;-51
2021/10/26 01:49:55;;;;;;;49.47;27.38;;;11.80;99.90;;;;;;5051544;28;20036;-51
2021/10/26 01:52:21;;;;;;;45.35;26.88;;;11.80;99.90;;;;;;5052099;28;20574;-50
2021/10/26 01:54:46;;;;;;;53.67;27.98;;;11.80;99.90;;;;;;5052198;28;20037;-49
2021/10/26 01:57:16;;;;;;;49.83;26.85;;;11.80;99.90;;;;;;5052039;28;20178;-50
2021/10/26 01:59:41;;;;;;;45.65;27.02;;;11.80;99.90;;;;;;5038156;28;20513;-51
2021/10/26 02:02:07;;;;;;;46.63;27.30;;;11.80;99.90;;;;;;5052316;28;20025;-49
2021/10/26 02:04:33;;;;;;;48.95;27.70;;;11.80;99.90;;;;;;5051784;28;20043;-49
2021/10/26 02:06:58;;;;;;;48.85;27.73;;;11.80;99.90;;;;;;5051482;28;20518;-49
2021/10/26 02:09:24;;;;;;;49.15;26.63;;;11.80;99.90;;;;;;5051715;28;20040;-53
2021/10/26 02:11:49;;;;;;;40.83;25.38;;;11.80;99.90;;;;;;5051493;28;20405;-50
2021/10/26 02:14:15;;;;;;;45.10;26.83;;;11.80;99.90;;;;;;5051408;28;20082;-51
2021/10/26 02:16:40;;;;;;;45.00;25.33;;;11.80;99.90;;;;;;5050632;28;20033;-49
2021/10/26 02:19:06;;;;;;;38.03;23.60;;;11.80;99.90;;;;;;5051676;28;20091;-52
2021/10/26 02:21:31;;;;;;;44.13;25.15;;;11.80;99.90;;;;;;5050900;28;20045;-49
2021/10/26 02:23:57;;;;;;;40.08;23.63;;;11.80;99.90;;;;;;5051725;28;20048;-49
2021/10/26 02:26:22;;;;;;;44.95;24.63;;;11.80;99.90;;;;;;5050997;28;20049;-49
2021/10/26 02:28:48;;;;;;;41.72;25.15;;;11.80;99.90;;;;;;5051233;28;20067;-50
2021/10/26 02:31:13;;;;;;;46.80;24.88;;;11.80;99.90;;;;;;5050749;28;20143;-53
2021/10/26 02:33:39;;;;;;;43.13;25.50;;;11.80;99.90;;;;;;5048608;28;20568;-49
2021/10/26 02:36:06;;;;;;;53.97;27.33;;;11.70;99.90;;;;;;5051229;28;20110;-49
2021/10/26 02:38:31;;;;;;;48.38;25.65;;;11.70;99.90;;;;;;5051169;28;20033;-49
2021/10/26 02:40:57;;;;;;;44.80;26.75;;;11.70;99.90;;;;;;5050910;28;20497;-50
2021/10/26 02:43:23;;;;;;;43.03;26.33;;;11.70;99.90;;;;;;5051022;28;20456;-49
2021/10/26 02:45:49;;;;;;;45.63;27.23;;;11.70;99.90;;;;;;5051315;28;20037;-52
2021/10/26 02:48:15;;;;;;;46.67;28.10;;;11.70;99.90;;;;;;5050552;28;20471;-54
2021/10/26 02:50:40;;;;;;;50.60;27.77;;;11.70;99.90;;;;;;5047857;28;20036;-50
2021/10/26 02:53:06;;;;;;;45.95;25.63;;;11.70;99.90;;;;;;5051364;28;20033;-49
2021/10/26 02:55:32;;;;;;;46.47;26.33;;;11.60;99.90;;;;;;5050588;28;20066;-53
2021/10/26 02:57:57;;;;;;;44.47;27.08;;;11.60;99.90;;;;;;5049888;28;20378;-49
2021/10/26 03:00:23;;;;;;;47.28;28.48;;;11.60;99.90;;;;;;5050895;28;20667;-49
2021/10/26 03:02:48;;;;;;;51.85;27.63;;;11.50;99.90;;;;;;5051039;28;20303;-49
2021/10/26 03:05:14;;;;;;;50.67;27.60;;;11.50;99.90;;;;;;5051263;28;20041;-49
2021/10/26 03:07:41;;;;;;;48.60;27.27;;;11.50;99.90;;;;;;5050830;28;20113;-51
2021/10/26 03:10:07;;;;;;;46.20;27.05;;;11.40;99.90;;;;;;5050758;28;20520;-49
2021/10/26 03:12:32;;;;;;;48.53;26.90;;;11.40;99.90;;;;;;5050738;28;20512;-49
2021/10/26 03:14:58;;;;;;;46.17;27.70;;;11.30;99.90;;;;;;5050627;28;20123;-50
2021/10/26 03:17:25;;;;;;;49.22;28.02;;;11.30;99.90;;;;;;5051005;28;20041;-52
2021/10/26 03:19:51;;;;;;;57.33;28.90;;;11.30;99.90;;;;;;5050993;28;20041;-49
2021/10/26 03:22:17;;;;;;;50.83;28.80;;;11.20;99.90;;;;;;5050636;28;20444;-49
2021/10/26 03:24:42;;;;;;;49.85;28.48;;;11.20;99.90;;;;;;5050601;28;20041;-49
2021/10/26 03:27:08;;;;;;;55.63;29.38;;;11.20;99.90;;;;;;5050641;28;20474;-51
2021/10/26 03:29:34;;;;;;;54.65;28.77;;;11.20;99.90;;;;;;5039562;28;20086;-53
2021/10/26 03:31:59;;;;;;;57.30;29.42;;;11.20;99.90;;;;;;5050280;28;20037;-49
2021/10/26 03:34:25;;;;;;;48.45;28.17;;;11.10;99.90;;;;;;5050791;28;20045;-49
2021/10/26 03:36:51;;;;;;;58.50;30.73;;;11.10;99.90;;;;;;5050225;28;20123;-50
2021/10/26 03:39:16;;;;;;;55.25;30.60;;;11.10;99.90;;;;;;5037283;28;20076;-49
2021/10/26 03:41:42;;;;;;;56.75;29.83;;;11.20;99.90;;;;;;5050188;28;20544;-52
2021/10/26 03:44:08;;;;;;;54.05;30.90;;;11.20;99.90;;;;;;5050288;28;20470;-49
2021/10/26 03:46:35;;;;;;;55.05;29.15;;;11.20;99.90;;;;;;5050619;28;20041;-49
2021/10/26 03:49:00;;;;;;;54.45;31.20;;;11.20;99.90;;;;;;5050223;28;20045;-50
2021/10/26 03:51:26;;;;;;;55.22;29.27;;;11.20;99.90;;;;;;5050273;28;20044;-49
2021/10/26 03:53:51;;;;;;;50.00;28.95;;;11.20;99.90;;;;;;5050566;28;20036;-52
2021/10/26 03:56:17;;;;;;;51.40;29.63;;;11.30;99.90;;;;;;5050551;28;20052;-50
2021/10/26 03:58:43;;;;;;;51.03;30.20;;;11.30;99.90;;;;;;5049110;28;20559;-52
2021/10/26 04:01:10;;;;;;;47.22;28.95;;;11.30;99.90;;;;;;5050454;28;20033;-52
2021/10/26 04:03:35;;;;;;;54.67;29.65;;;11.30;99.90;;;;;;5049547;28;20044;-52
2021/10/26 04:06:03;;;;;;;51.90;29.65;;;11.30;99.90;;;;;;5049748;28;20102;-53
2021/10/26 04:08:50;;;;;;;51.50;27.42;;;11.30;99.90;;;;;;5050238;28;20504;-53
2021/10/26 04:11:20;;;;;;;47.80;25.85;;;11.30;99.90;;;;;;5034977;28;20428;-54
2021/10/26 04:13:47;;;;;;;41.58;24.67;;;11.30;99.90;;;;;;5050236;28;20077;-52
2021/10/26 04:16:12;;;;;;;51.45;27.90;;;11.30;99.90;;;;;;5049178;28;20049;-53
2021/10/26 04:18:39;;;;;;;44.85;27.65;;;11.30;99.90;;;;;;5050244;28;20041;-52
2021/10/26 04:21:05;;;;;;;46.28;26.75;;;11.30;99.90;;;;;;5050391;28;20041;-51
2021/10/26 04:23:32;;;;;;;50.72;28.13;;;11.40;99.90;;;;;;5040778;28;20048;-51
2021/10/26 04:25:58;;;;;;;51.13;29.00;;;11.40;99.90;;;;;;5049721;28;20044;-54
2021/10/26 04:28:23;;;;;;;48.03;27.48;;;11.30;99.90;;;;;;5050186;28;20116;-51
2021/10/26 04:30:49;;;;;;;54.88;27.73;;;11.30;99.90;;;;;;5058832;28;20516;-51
2021/10/26 04:33:15;;;;;;;56.17;29.38;;;11.30;99.90;;;;;;5049842;28;20102;-53
2021/10/26 04:35:41;;;;;;;55.28;28.17;;;11.30;99.90;;;;;;5049821;28;20037;-53
2021/10/26 04:38:07;;;;;;;52.67;28.75;;;11.30;99.90;;;;;;5049265;28;20029;-50
2021/10/26 04:40:33;;;;;;;55.72;27.88;;;11.30;99.90;;;;;;5051039;28;20494;-52
2021/10/26 04:42:59;;;;;;;48.17;27.77;;;11.30;99.90;;;;;;5053417;28;20062;-50
2021/10/26 04:45:25;;;;;;;53.95;28.17;;;11.30;99.90;;;;;;5053703;28;20139;-53
2021/10/26 04:47:51;;;;;;;53.03;27.45;;;11.30;99.90;;;;;;5053455;28;20477;-51
2021/10/26 04:50:18;;;;;;;53.47;26.48;;;11.30;99.90;;;;;;5052516;28;20049;-53
2021/10/26 04:52:44;;;;;;;55.40;27.88;;;11.30;99.90;;;;;;5053397;28;20446;-50
2021/10/26 04:55:10;;;;;;;58.10;28.25;;;11.30;99.90;;;;;;5053195;28;20036;-52
2021/10/26 04:57:36;;;;;;;56.40;26.65;;;11.30;99.90;;;;;;5052999;28;20242;-51
2021/10/26 05:00:05;;;;;;;54.22;28.75;;;11.30;99.90;;;;;;5053371;28;20485;-54
2021/10/26 05:02:30;;;;;;;53.90;26.63;;;11.30;99.90;;;;;;5052736;28;20045;-52
2021/10/26 05:04:56;;;;;;;51.70;27.52;;;11.30;99.90;;;;;;5052804;28;20033;-49
2021/10/26 05:07:21;;;;;;;54.45;27.45;;;11.30;99.90;;;;;;5052735;28;20051;-51
2021/10/26 05:09:47;;;;;;;54.08;26.67;;;11.30;99.90;;;;;;5052648;28;20059;-52
2021/10/26 05:12:12;;;;;;;47.72;26.13;;;11.30;99.90;;;;;;5053223;28;20086;-50
2021/10/26 05:14:39;;;;;;;56.63;27.95;;;11.30;99.90;;;;;;5052250;28;20152;-53
2021/10/26 05:17:06;;;;;;;62.55;29.45;;;11.30;99.90;;;;;;5051729;28;20044;-53
2021/10/26 05:19:33;;;;;;;54.65;27.75;;;11.30;99.90;;;;;;5052460;28;20032;-52
2021/10/26 05:21:59;;;;;;;60.92;28.92;;;11.30;99.90;;;;;;5040124;28;20041;-50
2021/10/26 05:24:25;;;;;;;71.13;31.48;;;11.40;99.90;;;;;;5050573;28;20060;-53
2021/10/26 05:26:52;;;;;;;56.65;27.13;;;11.30;99.90;;;;;;5051940;28;20087;-53
2021/10/26 05:29:18;;;;;;;72.00;30.38;;;11.30;99.90;;;;;;5051658;28;20115;-50
2021/10/26 05:31:44;;;;;;;68.45;30.55;;;11.30;99.90;;;;;;5049336;28;20056;-53
2021/10/26 05:34:10;;;;;;;64.50;31.02;;;11.40;99.90;;;;;;5052149;28;20033;-53
2021/10/26 05:36:37;;;;;;;63.92;30.25;;;11.40;99.90;;;;;;5051364;28;20817;-51
2021/10/26 05:39:07;;;;;;;68.40;30.30;;;11.40;99.90;;;;;;5049828;28;20055;-53
2021/10/26 05:41:32;;;;;;;71.72;30.45;;;11.40;99.90;;;;;;5052044;28;20405;-49
2021/10/26 05:43:58;;;;;;;67.45;31.80;;;11.40;99.90;;;;;;5052089;28;20028;-51
2021/10/26 05:46:24;;;;;;;61.55;29.83;;;11.40;99.90;;;;;;5051449;28;20114;-53
2021/10/26 05:48:50;;;;;;;64.00;30.95;;;11.50;99.90;;;;;;5052237;28;20469;-49
2021/10/26 05:51:16;;;;;;;66.30;29.67;;;11.50;99.90;;;;;;5051974;28;20566;-53
2021/10/26 05:53:42;;;;;;;63.35;30.20;;;11.50;99.90;;;;;;5051930;28;20037;-52
2021/10/26 05:56:08;;;;;;;65.07;31.25;;;11.50;99.90;;;;;;5048334;28;20405;-52
2021/10/26 05:58:33;;;;;;;60.90;29.05;;;11.50;99.90;;;;;;5030578;28;20045;-49
2021/10/26 06:00:59;;;;;;;58.83;28.58;;;11.50;99.90;;;;;;5047957;28;20060;-51
2021/10/26 06:03:24;;;;;;;57.03;28.13;;;11.50;99.90;;;;;;5050806;28;20087;-50
2021/10/26 06:05:50;;;;;;;53.65;27.52;;;11.40;99.90;;;;;;5051325;28;20477;-51
2021/10/26 06:08:15;;;;;;;57.22;29.23;;;11.40;99.90;;;;;;5052108;28;20033;-49
2021/10/26 06:10:46;;;;;;;57.25;28.98;;;11.40;99.90;;;;;;5050001;28;20120;-49
2021/10/26 06:13:17;;;;;;;68.78;29.58;;;11.40;99.90;;;;;;5046775;28;20447;-52
2021/10/26 06:15:43;;;;;;;58.40;29.25;;;11.40;99.90;;;;;;5048623;28;20667;-51
2021/10/26 06:18:08;;;;;;;62.53;29.55;;;11.40;99.90;;;;;;5050190;28;20146;-52
2021/10/26 06:20:34;;;;;;;72.63;31.17;;;11.40;99.90;;;;;;5047698;28;20029;-52
2021/10/26 06:22:59;;;;;;;61.58;30.15;;;11.40;99.90;;;;;;5049026;28;20037;-49
2021/10/26 06:25:26;;;;;;;64.22;31.10;;;11.40;99.90;;;;;;5049187;28;20048;-52
2021/10/26 06:27:51;;;;;;;61.85;29.13;;;11.40;99.90;;;;;;5047055;28;21318;-52
2021/10/26 06:30:17;;;;;;;58.58;29.58;;;11.40;99.90;;;;;;5046236;28;20072;-52
2021/10/26 06:32:44;;;;;;;66.93;29.63;;;11.40;99.90;;;;;;5050152;28;20041;-52
2021/10/26 06:35:11;;;;;;;59.20;28.75;;;11.40;99.90;;;;;;5049258;28;20064;-51
2021/10/26 06:37:40;;;;;;;52.15;27.52;;;11.40;99.90;;;;;;5049960;28;20497;-52
2021/10/26 06:40:06;;;;;;;57.63;28.67;;;11.40;99.90;;;;;;5040061;28;20045;-48
2021/10/26 06:42:35;;;;;;;51.92;28.58;;;11.40;99.90;;;;;;5048449;28;20055;-50
2021/10/26 06:45:02;;;;;;;57.92;29.17;;;11.40;99.90;;;;;;5049963;28;20432;-49
2021/10/26 06:47:28;;;;;;;60.47;28.90;;;11.40;99.90;;;;;;5050005;28;20037;-52
2021/10/26 06:49:54;;;;;;;61.13;28.67;;;11.30;99.90;;;;;;5049247;28;20045;-50
2021/10/26 06:52:19;;;;;;;56.53;29.38;;;11.30;99.90;;;;;;5050497;28;20427;-52
2021/10/26 06:54:45;;;;;;;56.95;28.38;;;11.30;99.90;;;;;;5049529;28;20036;-50
2021/10/26 06:57:11;;;;;;;63.72;29.73;;;11.30;99.90;;;;;;5049729;28;20040;-49
2021/10/26 06:59:36;;;;;;;55.42;28.50;;;11.30;99.90;;;;;;5049977;28;20052;-52
2021/10/26 07:02:03;;;;;;;56.47;29.00;;;11.30;99.90;;;;;;5048670;28;20035;-48
2021/10/26 07:04:29;;;;;;;52.42;28.35;;;11.30;99.90;;;;;;5046598;28;20754;-50
2021/10/26 07:06:55;;;;;;;53.80;28.27;;;11.30;99.90;;;;;;5049725;28;20563;-53
2021/10/26 07:09:20;;;;;;;55.83;27.88;;;11.30;99.90;;;;;;5045984;28;20053;-49
2021/10/26 07:11:46;;;;;;;59.42;28.80;;;11.30;99.90;;;;;;5045723;28;20404;-53
2021/10/26 07:14:12;;;;;;;51.67;26.08;;;11.20;99.90;;;;;;5044199;28;20033;-51
2021/10/26 07:16:37;;;;;;;59.13;29.02;;;11.20;99.90;;;;;;5045729;28;20069;-55
2021/10/26 07:19:03;;;;;;;52.60;26.85;;;11.20;99.90;;;;;;5047303;28;20068;-54
2021/10/26 07:21:29;;;;;;;59.15;28.08;;;11.20;99.90;;;;;;5046007;28;20064;-52
2021/10/26 07:23:55;;;;;;;56.20;28.30;;;11.20;99.90;;;;;;5047299;28;20064;-49
2021/10/26 07:26:21;;;;;;;55.85;26.50;;;11.20;99.90;;;;;;5046625;28;20049;-53
2021/10/26 07:28:47;;;;;;;52.38;26.90;;;11.20;99.90;;;;;;5044974;28;20037;-48
2021/10/26 07:31:15;;;;;;;50.38;26.10;;;11.20;99.90;;;;;;5035714;28;20055;-52
2021/10/26 07:33:41;;;;;;;58.72;27.10;;;11.20;99.90;;;;;;5031814;28;20045;-51
2021/10/26 07:36:09;;;;;;;46.97;25.38;;;11.20;99.90;;;;;;5044414;28;20570;-54
2021/10/26 07:38:40;;;;;;;49.42;26.17;;;11.30;99.90;;;;;;5045849;28;20128;-53
2021/10/26 07:41:06;;;;;;;49.83;26.02;;;11.20;99.90;;;;;;5044982;28;20071;-52
2021/10/26 07:43:34;;;;;;;54.40;26.35;;;11.30;99.90;;;;;;5045602;28;20401;-50
2021/10/26 07:46:00;;;;;;;51.08;25.90;;;11.40;99.90;;;;;;5046587;28;20033;-49
2021/10/26 07:48:27;;;;;;;52.15;26.40;;;11.40;99.90;;;;;;5028906;28;20033;-52
2021/10/26 07:50:59;;;;;;;47.42;24.63;;;11.40;99.90;;;;;;5042281;28;20115;-52
2021/10/26 07:53:28;;;;;;;46.55;24.98;;;11.40;99.90;;;;;;5030818;28;20033;-50
2021/10/26 07:55:55;;;;;;;47.10;24.58;;;11.50;99.90;;;;;;5044355;28;20427;-49
2021/10/26 07:58:20;;;;;;;48.63;23.95;;;11.50;99.90;;;;;;5046249;28;20125;-49
2021/10/26 08:00:46;;;;;;;46.35;24.52;;;11.50;99.90;;;;;;5048012;28;20103;-52
2021/10/26 08:03:12;;;;;;;45.75;24.38;;;11.60;99.90;;;;;;5049850;28;20400;-52
2021/10/26 08:05:37;;;;;;;47.63;24.05;;;11.60;99.90;;;;;;5048658;28;20037;-52
2021/10/26 08:08:03;;;;;;;48.00;24.25;;;11.60;99.90;;;;;;5046922;28;20033;-53
2021/10/26 08:10:29;;;;;;;46.58;23.73;;;11.60;99.90;;;;;;5048756;28;20044;-50
2021/10/26 08:12:55;;;;;;;46.95;25.20;;;11.70;99.90;;;;;;5042544;28;20086;-50
2021/10/26 08:15:21;;;;;;;48.78;25.98;;;11.70;99.90;;;;;;5027839;28;20045;-50
2021/10/26 08:17:46;;;;;;;49.03;25.38;;;11.70;99.90;;;;;;5046793;28;20508;-49
2021/10/26 08:20:12;;;;;;;51.72;25.23;;;11.80;99.90;;;;;;5047143;28;20165;-51
2021/10/26 08:22:40;;;;;;;51.72;25.33;;;11.80;99.90;;;;;;5047968;28;20032;-49
2021/10/26 08:25:25;;;;;;;48.40;24.38;;;11.80;99.90;;;;;;5052366;28;20068;-51
2021/10/26 08:27:56;;;;;;;44.97;23.08;;;11.80;99.90;;;;;;5053581;28;20102;-48
2021/10/26 08:33:19;;;;;;;46.03;24.00;;;11.80;99.90;;;;;;5031347;28;20107;-53
2021/10/26 08:35:47;;;;;;;46.17;23.45;;;11.80;99.90;;;;;;5051005;28;20102;-51
2021/10/26 08:38:14;;;;;;;48.42;23.77;;;11.90;99.90;;;;;;5052691;28;20041;-52
2021/10/26 08:40:46;;;;;;;47.45;26.27;;;11.90;99.90;;;;;;5053404;28;20037;-49
2021/10/26 08:43:14;;;;;;;41.75;23.85;;;12.00;99.90;;;;;;5053792;28;20041;-52
2021/10/26 08:45:44;;;;;;;51.33;24.77;;;11.90;99.90;;;;;;5052809;28;20037;-49
2021/10/26 08:48:13;;;;;;;46.45;23.48;;;12.00;99.90;;;;;;5047327;28;20093;-50
2021/10/26 08:50:39;;;;;;;44.53;24.20;;;12.00;99.90;;;;;;5052942;28;20409;-52
2021/10/26 08:53:07;;;;;;;47.13;24.85;;;12.00;99.90;;;;;;5052529;28;20033;-49
2021/10/26 08:55:37;;;;;;;47.13;26.92;;;12.00;99.90;;;;;;5053067;28;20138;-51
2021/10/26 08:58:06;;;;;;;47.17;25.08;;;12.10;99.90;;;;;;5052932;28;20044;-52
2021/10/26 09:00:32;;;;;;;49.88;26.33;;;12.10;99.90;;;;;;5050295;28;20052;-50
2021/10/26 09:02:57;;;;;;;49.33;25.13;;;12.10;99.90;;;;;;5050744;28;20029;-52
2021/10/26 09:05:25;;;;;;;45.97;25.38;;;12.20;99.90;;;;;;5052262;28;20033;-51
2021/10/26 09:08:07;;;;;;;47.50;24.77;;;12.20;99.90;;;;;;5052797;28;20162;-50
2021/10/26 09:10:34;;;;;;;49.20;25.83;;;12.30;99.90;;;;;;5052243;28;20037;-52
2021/10/26 09:18:49;;;;;;;44.65;24.80;;;12.40;99.90;;;;;;5052748;28;20090;-50
2021/10/26 09:21:24;;;;;;;49.33;25.55;;;12.40;99.90;;;;;;5049855;28;20067;-48
2021/10/26 09:23:50;;;;;;;43.60;25.35;;;12.40;99.90;;;;;;5047618;28;20412;-50
2021/10/26 09:26:15;;;;;;;45.95;24.98;;;12.40;99.90;;;;;;5051827;28;20048;-50
2021/10/26 09:28:54;;;;;;;47.15;25.48;;;12.40;99.90;;;;;;5052676;28;20493;-49
2021/10/26 09:31:29;;;;;;;40.97;23.65;;;12.50;99.90;;;;;;5051467;28;20037;-50
2021/10/26 09:34:04;;;;;;;44.70;23.95;;;12.50;99.90;;;;;;5051950;28;20044;-50
2021/10/26 09:36:35;;;;;;;44.53;24.42;;;12.50;99.90;;;;;;5052243;28;20033;-52
2021/10/26 09:39:04;;;;;;;43.53;23.13;;;12.50;99.90;;;;;;5044818;28;20037;-50
2021/10/26 09:41:58;;;;;;;41.05;23.55;;;12.60;99.90;;;;;;5052205;28;20045;-49
2021/10/26 09:44:27;;;;;;;40.58;22.08;;;12.60;99.90;;;;;;5024839;28;20140;-50
2021/10/26 09:46:59;;;;;;;44.08;23.42;;;12.60;99.90;;;;;;5051594;28;20041;-52
2021/10/26 09:49:32;;;;;;;40.80;23.27;;;12.60;99.90;;;;;;5052560;28;20045;-49
2021/10/26 09:52:12;;;;;;;38.10;21.73;;;12.70;99.90;;;;;;5050284;28;20059;-50
2021/10/26 09:54:40;;;;;;;42.63;21.70;;;12.70;99.90;;;;;;5048600;28;20036;-49
2021/10/26 09:57:17;;;;;;;38.72;22.25;;;12.80;99.90;;;;;;5051297;28;20559;-50
2021/10/26 09:59:48;;;;;;;43.88;22.20;;;12.80;99.90;;;;;;5047371;28;20084;-48
2021/10/26 10:02:24;;;;;;;35.65;20.20;;;12.90;99.90;;;;;;5051781;28;20040;-49
2021/10/26 10:04:56;;;;;;;34.22;20.40;;;13.00;99.90;;;;;;5008746;28;20041;-52
2021/10/26 10:07:48;;;;;;;43.33;22.95;;;13.00;99.90;;;;;;5051564;28;20041;-48
2021/10/26 10:10:13;;;;;;;43.47;22.88;;;13.10;99.90;;;;;;5047290;28;20052;-50
2021/10/26 10:12:42;;;;;;;49.25;21.73;;;13.20;99.90;;;;;;5051288;28;20094;-51
2021/10/26 10:15:09;;;;;;;37.85;20.73;;;13.20;99.90;;;;;;5051594;28;20467;-49
2021/10/26 10:17:36;;;;;;;35.80;20.38;;;13.30;99.90;;;;;;5047112;28;20381;-49
2021/10/26 10:20:04;;;;;;;34.78;19.80;;;13.20;99.90;;;;;;5047353;28;20079;-54
2021/10/26 10:22:31;;;;;;;38.40;21.73;;;13.30;99.90;;;;;;5049761;28;20044;-51
2021/10/26 10:25:06;;;;;;;36.75;19.00;;;13.30;99.90;;;;;;5051705;28;20064;-51
2021/10/26 10:27:33;;;;;;;37.90;18.27;;;13.30;99.90;;;;;;5049029;28;20068;-52
2021/10/26 10:29:59;;;;;;;45.10;20.25;;;13.30;99.90;;;;;;5027182;28;20037;-53
2021/10/26 10:32:28;;;;;;;34.47;17.95;;;13.30;99.90;;;;;;5051128;28;20301;-52
2021/10/26 10:34:58;;;;;;;28.83;18.05;;;13.40;99.90;;;;;;5050762;28;20041;-50
2021/10/26 10:37:26;;;;;;;29.05;16.15;;;13.40;99.90;;;;;;5049311;28;20045;-53
2021/10/26 10:39:57;;;;;;;32.92;17.08;;;13.50;99.90;;;;;;5049349;28;20033;-55
2021/10/26 10:42:24;;;;;;;32.78;16.25;;;13.60;99.90;;;;;;5050843;28;20041;-53
2021/10/26 10:44:53;;;;;;;32.08;17.83;;;13.60;99.90;;;;;;5046436;28;20398;-53
2021/10/26 10:47:36;;;;;;;29.15;16.85;;;13.70;99.90;;;;;;5047158;28;20418;-54
2021/10/26 10:50:04;;;;;;;33.10;16.52;;;13.80;99.90;;;;;;5047871;28;20064;-52
2021/10/26 10:52:34;;;;;;;31.20;17.33;;;13.80;99.90;;;;;;5049957;28;20048;-54
2021/10/26 10:55:21;;;;;;;31.55;17.05;;;13.70;99.90;;;;;;5048634;28;20108;-51
2021/10/26 10:57:46;;;;;;;30.35;17.17;;;13.70;99.90;;;;;;5050343;28;20094;-56
2021/10/26 11:00:24;;;;;;;29.98;17.13;;;13.70;99.90;;;;;;5050854;28;20048;-55
2021/10/26 11:02:52;;;;;;;28.73;16.13;;;13.70;99.90;;;;;;5050075;28;20033;-54
2021/10/26 11:05:36;;;;;;;31.58;16.73;;;13.60;99.90;;;;;;5047162;28;20155;-53
2021/10/26 11:08:09;;;;;;;26.83;16.50;;;13.60;99.90;;;;;;5051114;28;20452;-53
2021/10/26 11:10:49;;;;;;;30.70;18.00;;;13.60;99.90;;;;;;5048384;28;20052;-55
2021/10/26 11:13:19;;;;;;;29.27;16.85;;;13.60;99.90;;;;;;5051271;28;20049;-50
2021/10/26 11:15:46;;;;;;;32.13;17.17;;;13.60;99.90;;;;;;5049965;28;20041;-56
2021/10/26 11:18:53;;;;;;;31.60;18.52;;;13.50;99.90;;;;;;5050298;28;20052;-53
2021/10/26 11:21:21;;;;;;;29.58;17.65;;;13.50;99.90;;;;;;5048485;28;20052;-50
2021/10/26 11:23:48;;;;;;;40.95;20.60;;;13.50;99.90;;;;;;5045447;28;20102;-52
2021/10/26 11:26:17;;;;;;;42.58;24.33;;;13.40;99.90;;;;;;5048066;28;20049;-50
2021/10/26 11:28:48;;;;;;;31.50;20.20;;;13.50;99.90;;;;;;5050174;28;20055;-50
2021/10/26 11:31:16;;;;;;;38.47;20.80;;;13.50;99.90;;;;;;5050613;28;20068;-50
2021/10/26 11:33:53;;;;;;;37.85;20.30;;;13.50;99.90;;;;;;5050219;28;20090;-50
2021/10/26 11:36:19;;;;;;;38.88;20.30;;;13.50;99.90;;;;;;5048577;28;20041;-54
2021/10/26 11:38:50;;;;;;;36.03;20.27;;;13.60;99.90;;;;;;5049129;28;20041;-50
2021/10/26 11:41:25;;;;;;;40.47;21.73;;;13.60;99.90;;;;;;5047680;28;20378;-54
2021/10/26 11:43:53;;;;;;;36.25;21.70;;;13.60;99.90;;;;;;5049837;28;20068;-50
2021/10/26 11:46:26;;;;;;;34.03;20.25;;;13.60;99.90;;;;;;5048501;28;20110;-50
2021/10/26 11:49:05;;;;;;;38.03;21.27;;;13.60;99.90;;;;;;5051951;28;20045;-53
2021/10/26 11:51:45;;;;;;;35.63;21.90;;;13.50;99.90;;;;;;5053187;28;20068;-50
2021/10/26 11:54:19;;;;;;;39.50;21.42;;;13.50;99.90;;;;;;5048006;28;20051;-51
2021/10/26 11:56:56;;;;;;;34.38;21.35;;;13.50;99.90;;;;;;5052508;28;20098;-50
2021/10/26 11:59:22;;;;;;;37.95;20.42;;;13.60;99.90;;;;;;5052249;28;20040;-53
2021/10/26 12:02:15;;;;;;;34.53;21.90;;;13.60;99.90;;;;;;5051368;28;20041;-50
2021/10/26 12:04:57;;;;;;;36.92;19.80;;;13.60;99.90;;;;;;5025858;28;20501;-50
2021/10/26 12:07:28;;;;;;;39.67;21.43;;;13.60;99.90;;;;;;5051549;28;20493;-50
2021/10/26 12:09:55;;;;;;;37.15;21.00;;;13.60;99.90;;;;;;5049457;28;20300;-50
2021/10/26 12:12:30;;;;;;;34.88;19.30;;;13.60;99.90;;;;;;5050298;28;20091;-52
2021/10/26 12:15:01;;;;;;;35.95;19.45;;;13.60;99.90;;;;;;5052757;28;20036;-52
2021/10/26 12:17:30;;;;;;;35.15;18.23;;;13.60;99.90;;;;;;5052671;28;20037;-51
2021/10/26 12:20:20;;;;;;;39.15;18.00;;;13.60;99.90;;;;;;5044668;28;20113;-50
2021/10/26 12:22:57;;;;;;;34.05;17.55;;;13.60;99.90;;;;;;5052279;28;20032;-52
2021/10/26 12:25:31;;;;;;;35.38;17.15;;;13.60;99.90;;;;;;5050164;28;20041;-50
2021/10/26 12:28:03;;;;;;;32.35;16.48;;;13.60;99.90;;;;;;5051375;28;20064;-52
2021/10/26 12:30:47;;;;;;;33.85;15.57;;;13.60;99.90;;;;;;5035638;28;20136;-53
2021/10/26 12:33:16;;;;;;;29.85;15.32;;;13.50;99.90;;;;;;5049746;28;20135;-53
2021/10/26 12:36:08;;;;;;;32.33;15.38;;;13.50;99.90;;;;;;5052814;28;20090;-53
2021/10/26 12:38:36;;;;;;;30.85;15.45;;;13.40;99.90;;;;;;5048993;28;20127;-53
2021/10/26 12:41:16;;;;;;;27.98;14.95;;;13.40;99.90;;;;;;5051140;28;20060;-51